createdAt,value
2022-09-12T00:00:00.308Z,12.63
2022-09-12T00:01:00.552Z,12.62
2022-09-12T00:02:00.661Z,12.62
2022-09-12T00:03:00.742Z,12.61
2022-09-12T00:04:00.890Z,12.6
2022-09-12T00:05:01.055Z,12.6
2022-09-12T00:06:01.191Z,12.59
2022-09-12T00:07:00.351Z,12.57
2022-09-12T00:08:00.488Z,12.57
2022-09-12T00:09:00.643Z,12.56
2022-09-12T00:10:00.780Z,12.53
2022-09-12T00:11:00.918Z,12.5
2022-09-12T00:12:01.061Z,12.46
2022-09-12T00:13:01.201Z,12.43
2022-09-12T00:14:00.359Z,12.4
2022-09-12T00:15:00.530Z,12.38
2022-09-12T00:16:00.643Z,12.36
2022-09-12T00:17:00.818Z,12.35
2022-09-12T00:18:00.961Z,12.32
2022-09-12T00:19:01.114Z,12.3
2022-09-12T00:21:00.374Z,12.27
2022-09-12T00:22:00.533Z,12.22
2022-09-12T00:23:00.649Z,12.2
2022-09-12T00:24:00.797Z,12.19
2022-09-12T00:25:00.950Z,12.2
2022-09-12T00:26:01.085Z,12.2
2022-09-12T00:27:01.251Z,12.22
2022-09-12T00:28:00.390Z,12.22
2022-09-12T00:29:00.528Z,12.2
2022-09-12T00:30:00.676Z,12.18
2022-09-12T00:31:00.816Z,12.15
2022-09-12T00:32:01.049Z,12.15
2022-09-12T00:33:01.110Z,12.18
2022-09-12T00:34:00.269Z,12.2
2022-09-12T00:35:00.404Z,12.2
2022-09-12T00:36:00.547Z,12.2
2022-09-12T00:37:00.724Z,12.2
2022-09-12T00:38:00.847Z,12.21
2022-09-12T00:39:00.992Z,12.21
2022-09-12T00:40:01.233Z,12.17
2022-09-12T00:41:00.277Z,12.17
2022-09-12T00:42:00.439Z,12.16
2022-09-12T00:43:00.582Z,12.15
2022-09-12T00:44:00.724Z,12.14
2022-09-12T00:45:00.865Z,12.12
2022-09-12T00:46:01.051Z,12.07
2022-09-12T00:47:01.186Z,12.02
2022-09-12T00:48:00.298Z,11.99
2022-09-12T00:49:00.448Z,11.97
2022-09-12T00:50:00.591Z,11.96
2022-09-12T00:51:00.749Z,11.98
2022-09-12T00:52:00.899Z,12
2022-09-12T00:53:01.067Z,12.01
2022-09-12T00:54:01.185Z,11.98
2022-09-12T00:55:00.350Z,11.97
2022-09-12T00:56:00.467Z,11.94
2022-09-12T00:57:00.625Z,11.9
2022-09-12T00:58:00.791Z,11.88
2022-09-12T00:59:00.915Z,11.86
2022-09-12T01:00:01.068Z,11.83
2022-09-12T01:01:01.366Z,11.81
2022-09-12T01:02:00.515Z,11.81
2022-09-12T01:03:00.536Z,11.77
2022-09-12T01:04:00.666Z,11.76
2022-09-12T01:05:00.821Z,11.77
2022-09-12T01:06:00.956Z,11.78
2022-09-12T01:07:01.096Z,11.78
2022-09-12T01:08:01.263Z,11.81
2022-09-12T01:09:00.400Z,11.78
2022-09-12T01:10:00.538Z,11.78
2022-09-12T01:11:00.681Z,11.76
2022-09-12T01:12:00.831Z,11.77
2022-09-12T01:13:00.997Z,11.76
2022-09-12T01:14:01.123Z,11.72
2022-09-12T01:15:00.278Z,11.69
2022-09-12T01:16:00.455Z,11.64
2022-09-12T01:17:00.576Z,11.62
2022-09-12T01:18:00.715Z,11.61
2022-09-12T01:19:00.874Z,11.61
2022-09-12T01:20:01.021Z,11.6
2022-09-12T01:21:01.196Z,11.59
2022-09-12T01:22:00.310Z,11.56
2022-09-12T01:23:00.462Z,11.57
2022-09-12T01:24:00.600Z,11.59
2022-09-12T01:25:00.754Z,11.6
2022-09-12T01:26:00.918Z,11.62
2022-09-12T01:27:01.049Z,11.63
2022-09-12T01:28:01.198Z,11.62
2022-09-12T01:29:00.332Z,11.62
2022-09-12T01:30:00.476Z,11.58
2022-09-12T01:31:00.660Z,11.58
2022-09-12T01:32:00.802Z,11.57
2022-09-12T01:33:00.925Z,11.57
2022-09-12T01:34:01.083Z,11.57
2022-09-12T01:35:01.222Z,11.57
2022-09-12T01:36:00.384Z,11.56
2022-09-12T01:37:00.519Z,11.55
2022-09-12T01:38:00.661Z,11.55
2022-09-12T01:39:00.810Z,11.53
2022-09-12T01:40:00.987Z,11.52
2022-09-12T01:41:01.123Z,11.51
2022-09-12T01:42:01.239Z,11.49
2022-09-12T01:43:00.382Z,11.51
2022-09-12T01:44:00.535Z,11.46
2022-09-12T01:45:00.678Z,11.42
2022-09-12T01:46:00.922Z,11.43
2022-09-12T01:47:00.975Z,11.42
2022-09-12T01:48:01.127Z,11.37
2022-09-12T01:49:00.261Z,11.33
2022-09-12T01:50:00.420Z,11.31
2022-09-12T01:51:00.584Z,11.32
2022-09-12T01:52:00.713Z,11.31
2022-09-12T01:53:00.844Z,11.28
2022-09-12T01:54:00.997Z,11.24
2022-09-12T01:55:01.136Z,11.23
2022-09-12T01:56:00.294Z,11.24
2022-09-12T01:57:00.436Z,11.25
2022-09-12T01:58:00.593Z,11.27
2022-09-12T01:59:00.741Z,11.3
2022-09-12T02:00:00.903Z,11.27
2022-09-12T02:01:01.090Z,11.22
2022-09-12T02:02:01.223Z,11.23
2022-09-12T02:03:00.337Z,11.24
2022-09-12T02:04:00.479Z,11.2
2022-09-12T02:05:00.628Z,11.18
2022-09-12T02:06:00.795Z,11.19
2022-09-12T02:07:00.927Z,11.2
2022-09-12T02:08:01.068Z,11.22
2022-09-12T02:09:01.208Z,11.19
2022-09-12T02:10:00.355Z,11.2
2022-09-12T02:11:00.517Z,11.23
2022-09-12T02:12:00.635Z,11.24
2022-09-12T02:13:00.793Z,11.23
2022-09-12T02:14:00.935Z,11.24
2022-09-12T02:15:01.089Z,11.25
2022-09-12T02:16:01.253Z,11.25
2022-09-12T02:17:00.403Z,11.25
2022-09-12T02:18:00.541Z,11.26
2022-09-12T02:19:00.684Z,11.27
2022-09-12T02:20:00.835Z,11.27
2022-09-12T02:21:00.974Z,11.27
2022-09-12T02:22:01.138Z,11.28
2022-09-12T02:23:00.264Z,11.28
2022-09-12T02:24:00.404Z,11.26
2022-09-12T02:25:00.563Z,11.25
2022-09-12T02:26:00.712Z,11.24
2022-09-12T02:27:00.869Z,11.23
2022-09-12T02:28:00.995Z,11.23
2022-09-12T02:29:01.147Z,11.17
2022-09-12T02:30:00.299Z,11.13
2022-09-12T02:31:00.497Z,11.13
2022-09-12T02:32:00.602Z,11.13
2022-09-12T02:33:00.753Z,11.19
2022-09-12T02:34:00.892Z,11.22
2022-09-12T02:35:01.046Z,11.22
2022-09-12T02:36:01.217Z,11.22
2022-09-12T02:37:00.356Z,11.24
2022-09-12T02:38:00.493Z,11.27
2022-09-12T02:39:00.645Z,11.3
2022-09-12T02:40:00.881Z,11.29
2022-09-12T02:41:00.971Z,11.24
2022-09-12T02:42:01.099Z,11.2
2022-09-12T02:43:01.233Z,11.18
2022-09-12T02:44:00.375Z,11.19
2022-09-12T02:45:00.514Z,11.19
2022-09-12T02:46:00.727Z,11.2
2022-09-12T02:47:00.817Z,11.2
2022-09-12T02:48:00.956Z,11.2
2022-09-12T02:49:01.097Z,11.15
2022-09-12T02:50:01.244Z,11.13
2022-09-12T02:51:00.403Z,11.12
2022-09-12T02:52:00.551Z,11.14
2022-09-12T02:53:00.690Z,11.18
2022-09-12T02:54:00.838Z,11.18
2022-09-12T02:55:00.986Z,11.17
2022-09-12T02:56:01.133Z,11.14
2022-09-12T02:57:00.298Z,11.13
2022-09-12T02:58:00.437Z,11.14
2022-09-12T02:59:00.588Z,11.15
2022-09-12T03:00:00.731Z,11.17
2022-09-12T03:01:00.903Z,11.17
2022-09-12T03:02:01.122Z,11.13
2022-09-12T03:03:01.207Z,11.14
2022-09-12T03:04:00.314Z,11.15
2022-09-12T03:05:00.474Z,11.14
2022-09-12T03:06:00.601Z,11.14
2022-09-12T03:07:00.757Z,11.14
2022-09-12T03:08:00.936Z,11.15
2022-09-12T03:09:01.057Z,11.11
2022-09-12T03:10:01.209Z,11.07
2022-09-12T03:11:00.351Z,11.04
2022-09-12T03:12:00.528Z,11.04
2022-09-12T03:13:00.646Z,11.07
2022-09-12T03:14:00.790Z,11.07
2022-09-12T03:15:00.945Z,11.08
2022-09-12T03:16:01.117Z,11.07
2022-09-12T03:17:01.261Z,11.08
2022-09-12T03:18:00.375Z,11.07
2022-09-12T03:19:00.531Z,11.07
2022-09-12T03:20:00.710Z,11.08
2022-09-12T03:21:00.825Z,11.05
2022-09-12T03:22:00.976Z,11.03
2022-09-12T03:23:01.171Z,11.02
2022-09-12T03:24:00.276Z,11
2022-09-12T03:25:00.413Z,11
2022-09-12T03:26:00.547Z,10.99
2022-09-12T03:27:00.687Z,10.99
2022-09-12T03:28:00.857Z,11
2022-09-12T03:29:00.988Z,11.01
2022-09-12T03:30:01.126Z,11.03
2022-09-12T03:31:00.366Z,11.04
2022-09-12T03:32:00.422Z,11.05
2022-09-12T03:33:00.598Z,11.04
2022-09-12T03:34:00.722Z,11.05
2022-09-12T03:35:00.883Z,11.08
2022-09-12T03:36:01.024Z,11.09
2022-09-12T03:37:01.172Z,11.1
2022-09-12T03:38:00.334Z,11.1
2022-09-12T03:39:00.461Z,11.12
2022-09-12T03:40:00.662Z,11.13
2022-09-12T03:41:00.758Z,11.14
2022-09-12T03:42:00.904Z,11.14
2022-09-12T03:43:01.072Z,11.13
2022-09-12T03:44:01.224Z,11.13
2022-09-12T03:45:00.342Z,11.13
2022-09-12T03:46:00.539Z,11.11
2022-09-12T03:47:00.639Z,11.13
2022-09-12T03:48:00.785Z,11.13
2022-09-12T03:49:00.949Z,11.14
2022-09-12T03:50:01.088Z,11.17
2022-09-12T03:51:01.234Z,11.19
2022-09-12T03:52:00.380Z,11.2
2022-09-12T03:53:00.531Z,11.23
2022-09-12T03:54:00.690Z,11.24
2022-09-12T03:55:00.848Z,11.25
2022-09-12T03:56:00.984Z,11.28
2022-09-12T03:57:01.134Z,11.29
2022-09-12T03:58:00.273Z,11.3
2022-09-12T03:59:00.431Z,11.31
2022-09-12T04:00:00.589Z,11.31
2022-09-12T04:01:00.763Z,11.3
2022-09-12T04:02:00.863Z,11.3
2022-09-12T04:03:01.010Z,11.31
2022-09-12T04:04:01.156Z,11.36
2022-09-12T04:05:00.331Z,11.4
2022-09-12T04:06:00.460Z,11.42
2022-09-12T04:07:00.604Z,11.42
2022-09-12T04:08:00.760Z,11.43
2022-09-12T04:09:00.912Z,11.43
2022-09-12T04:10:01.088Z,11.44
2022-09-12T04:11:01.206Z,11.45
2022-09-12T04:12:00.360Z,11.46
2022-09-12T04:13:00.494Z,11.47
2022-09-12T04:14:00.657Z,11.46
2022-09-12T04:15:00.821Z,11.42
2022-09-12T04:16:00.952Z,11.4
2022-09-12T04:17:01.103Z,11.38
2022-09-12T04:18:05.602Z,11.34
2022-09-12T04:19:00.379Z,11.31
2022-09-12T04:20:00.541Z,11.27
2022-09-12T04:21:00.710Z,11.24
2022-09-12T04:22:00.832Z,11.2
2022-09-12T04:23:00.986Z,11.17
2022-09-12T04:24:01.131Z,11.14
2022-09-12T04:25:00.287Z,11.12
2022-09-12T04:26:00.442Z,11.1
2022-09-12T04:27:02.853Z,11.1
2022-09-12T04:28:00.719Z,11.08
2022-09-12T04:29:00.856Z,11.08
2022-09-12T04:30:01.018Z,11.07
2022-09-12T04:31:01.232Z,11.03
2022-09-12T04:32:00.300Z,11.01
2022-09-12T04:33:02.230Z,10.99
2022-09-12T04:34:00.596Z,10.98
2022-09-12T04:35:00.732Z,10.98
2022-09-12T04:36:00.911Z,10.95
2022-09-12T04:37:01.032Z,10.93
2022-09-12T04:38:01.174Z,10.9
2022-09-12T04:39:00.311Z,10.92
2022-09-12T04:40:00.570Z,10.94
2022-09-12T04:41:00.618Z,10.99
2022-09-12T04:42:00.766Z,11.04
2022-09-12T04:43:00.904Z,11.04
2022-09-12T04:44:01.056Z,11
2022-09-12T04:45:01.200Z,10.94
2022-09-12T04:46:00.381Z,10.86
2022-09-12T04:47:00.527Z,10.8
2022-09-12T04:48:00.671Z,10.78
2022-09-12T04:49:00.808Z,10.79
2022-09-12T04:50:00.960Z,10.79
2022-09-12T04:51:01.115Z,10.8
2022-09-12T04:52:00.278Z,10.82
2022-09-12T04:53:00.438Z,10.84
2022-09-12T04:54:00.566Z,10.84
2022-09-12T04:55:00.714Z,10.83
2022-09-12T04:56:00.865Z,10.79
2022-09-12T04:57:01.012Z,10.73
2022-09-12T04:58:01.170Z,10.7
2022-09-12T04:59:00.306Z,10.68
2022-09-12T05:00:05.115Z,10.68
2022-09-12T05:01:00.636Z,10.69
2022-09-12T05:02:00.897Z,10.72
2022-09-12T05:03:00.911Z,10.78
2022-09-12T05:04:01.036Z,10.82
2022-09-12T05:05:01.197Z,10.84
2022-09-12T05:06:00.331Z,10.85
2022-09-12T05:07:00.484Z,10.86
2022-09-12T05:08:00.659Z,10.87
2022-09-12T05:09:00.766Z,10.85
2022-09-12T05:10:00.905Z,10.84
2022-09-12T05:11:01.066Z,10.84
2022-09-12T05:12:05.268Z,10.83
2022-09-12T05:13:00.374Z,10.84
2022-09-12T05:14:00.539Z,10.89
2022-09-12T05:15:00.657Z,10.94
2022-09-12T05:16:00.787Z,10.94
2022-09-12T05:17:00.992Z,10.98
2022-09-12T05:18:01.108Z,11
2022-09-12T05:19:01.239Z,11.03
2022-09-12T05:20:00.382Z,11.05
2022-09-12T05:21:00.531Z,11.05
2022-09-12T05:22:00.678Z,11.07
2022-09-12T05:23:00.859Z,11.07
2022-09-12T05:24:00.986Z,11.07
2022-09-12T05:25:01.135Z,11.07
2022-09-12T05:26:00.277Z,11.05
2022-09-12T05:27:00.427Z,11.07
2022-09-12T05:28:00.604Z,11.07
2022-09-12T05:29:00.732Z,11.07
2022-09-12T05:30:00.878Z,11.09
2022-09-12T05:31:01.074Z,11.1
2022-09-12T05:32:01.177Z,11.11
2022-09-12T05:33:00.343Z,11.12
2022-09-12T05:34:00.466Z,11.13
2022-09-12T05:35:00.611Z,11.13
2022-09-12T05:36:00.747Z,11.14
2022-09-12T05:37:00.923Z,11.15
2022-09-12T05:38:01.041Z,11.14
2022-09-12T05:39:01.183Z,11.17
2022-09-12T05:40:00.390Z,11.17
2022-09-12T05:41:00.490Z,11.18
2022-09-12T05:42:00.658Z,11.18
2022-09-12T05:43:00.786Z,11.17
2022-09-12T05:44:00.940Z,11.17
2022-09-12T05:45:01.085Z,11.17
2022-09-12T05:46:01.244Z,11.15
2022-09-12T05:47:00.407Z,11.17
2022-09-12T05:48:00.528Z,11.17
2022-09-12T05:49:00.675Z,11.18
2022-09-12T05:50:00.833Z,11.2
2022-09-12T05:51:00.982Z,11.22
2022-09-12T05:52:01.150Z,11.25
2022-09-12T05:53:00.279Z,11.26
2022-09-12T05:54:00.425Z,11.29
2022-09-12T05:55:00.571Z,11.32
2022-09-12T05:56:00.727Z,11.33
2022-09-12T05:57:00.887Z,11.34
2022-09-12T05:58:01.004Z,11.37
2022-09-12T05:59:01.153Z,11.38
2022-09-12T06:00:00.299Z,11.39
2022-09-12T06:01:00.447Z,11.41
2022-09-12T06:02:00.673Z,11.44
2022-09-12T06:03:00.733Z,11.45
2022-09-12T06:04:00.948Z,11.47
2022-09-12T06:05:01.022Z,11.51
2022-09-12T06:06:01.173Z,11.53
2022-09-12T06:07:00.350Z,11.55
2022-09-12T06:08:00.461Z,11.58
2022-09-12T06:09:00.616Z,11.61
2022-09-12T06:10:00.774Z,11.64
2022-09-12T06:11:02.420Z,11.68
2022-09-12T06:12:01.107Z,11.69
2022-09-12T06:13:01.228Z,11.7
2022-09-12T06:14:00.371Z,11.71
2022-09-12T06:15:00.519Z,11.75
2022-09-12T06:16:00.665Z,11.78
2022-09-12T06:17:00.871Z,11.81
2022-09-12T06:18:00.961Z,11.82
2022-09-12T06:19:01.113Z,11.85
2022-09-12T06:20:00.259Z,11.87
2022-09-12T06:21:00.403Z,11.9
2022-09-12T06:22:00.576Z,11.92
2022-09-12T06:23:00.700Z,11.96
2022-09-12T06:24:00.850Z,12
2022-09-12T06:25:01.011Z,12.05
2022-09-12T06:26:01.146Z,12.11
2022-09-12T06:27:00.328Z,12.15
2022-09-12T06:28:00.444Z,12.2
2022-09-12T06:29:00.594Z,12.25
2022-09-12T06:30:00.735Z,12.29
2022-09-12T06:31:00.947Z,12.34
2022-09-12T06:32:01.052Z,12.37
2022-09-12T06:33:01.174Z,12.42
2022-09-12T06:34:00.313Z,12.46
2022-09-12T06:35:00.489Z,12.51
2022-09-12T06:36:00.639Z,12.56
2022-09-12T06:37:00.807Z,12.59
2022-09-12T06:38:00.933Z,12.6
2022-09-12T06:39:01.082Z,12.63
2022-09-12T06:40:02.022Z,12.65
2022-09-12T06:41:00.356Z,12.66
2022-09-12T06:42:00.528Z,12.67
2022-09-12T06:43:00.681Z,12.69
2022-09-12T06:44:00.811Z,12.71
2022-09-12T06:45:00.948Z,12.72
2022-09-12T06:46:01.152Z,12.74
2022-09-12T06:48:00.390Z,12.76
2022-09-12T06:49:00.516Z,12.77
2022-09-12T06:50:00.669Z,12.78
2022-09-12T06:51:00.809Z,12.79
2022-09-12T06:52:00.951Z,12.8
2022-09-12T06:53:01.125Z,12.81
2022-09-12T06:54:01.248Z,12.84
2022-09-12T06:55:00.388Z,12.85
2022-09-12T06:56:00.545Z,12.85
2022-09-12T06:57:00.700Z,12.86
2022-09-12T06:58:00.865Z,12.87
2022-09-12T06:59:00.994Z,12.89
2022-09-12T07:00:01.147Z,12.91
2022-09-12T07:01:00.323Z,12.92
2022-09-12T07:02:00.508Z,12.94
2022-09-12T07:03:00.596Z,12.96
2022-09-12T07:04:00.725Z,12.99
2022-09-12T07:05:00.869Z,13.01
2022-09-12T07:06:01.017Z,13.03
2022-09-12T07:07:01.172Z,13.05
2022-09-12T07:08:00.357Z,13.08
2022-09-12T07:09:00.467Z,13.1
2022-09-12T07:10:00.593Z,13.12
2022-09-12T07:11:00.738Z,13.15
2022-09-12T07:12:00.886Z,13.17
2022-09-12T07:13:01.042Z,13.21
2022-09-12T07:14:01.166Z,13.23
2022-09-12T07:15:00.330Z,13.25
2022-09-12T07:16:00.463Z,13.29
2022-09-12T07:17:00.624Z,13.33
2022-09-12T07:18:00.757Z,13.36
2022-09-12T07:19:00.910Z,13.4
2022-09-12T07:20:01.102Z,13.45
2022-09-12T07:21:01.192Z,13.48
2022-09-12T07:22:00.343Z,13.51
2022-09-12T07:23:00.497Z,13.56
2022-09-12T07:24:00.661Z,13.63
2022-09-12T07:25:00.831Z,13.68
2022-09-12T07:26:00.957Z,13.73
2022-09-12T07:27:01.102Z,13.76
2022-09-12T07:28:01.243Z,13.8
2022-09-12T07:29:25.260Z,13.86
2022-09-12T07:30:00.559Z,13.93
2022-09-12T07:31:00.718Z,14
2022-09-12T07:32:00.837Z,14.08
2022-09-12T07:33:01.002Z,14.13
2022-09-12T07:34:01.131Z,14.17
2022-09-12T07:35:00.301Z,14.24
2022-09-12T07:36:00.432Z,14.3
2022-09-12T07:37:00.582Z,14.32
2022-09-12T07:38:00.726Z,14.32
2022-09-12T07:39:00.875Z,14.33
2022-09-12T07:40:01.084Z,14.37
2022-09-12T07:41:01.191Z,14.43
2022-09-12T07:42:00.334Z,14.43
2022-09-12T07:43:00.465Z,14.47
2022-09-12T07:44:00.612Z,14.55
2022-09-12T07:45:00.752Z,14.57
2022-09-12T07:46:01.104Z,14.58
2022-09-12T07:47:01.046Z,14.6
2022-09-12T07:48:01.193Z,14.63
2022-09-12T07:49:00.347Z,14.63
2022-09-12T07:50:00.494Z,14.63
2022-09-12T07:51:00.654Z,14.62
2022-09-12T07:52:00.804Z,14.62
2022-09-12T07:53:00.948Z,14.63
2022-09-12T07:54:01.094Z,14.65
2022-09-12T07:55:01.231Z,14.67
2022-09-12T07:56:00.373Z,14.7
2022-09-12T07:57:00.539Z,14.73
2022-09-12T07:58:00.665Z,14.75
2022-09-12T07:59:00.814Z,14.75
2022-09-12T08:00:00.955Z,14.75
2022-09-12T08:01:01.173Z,14.79
2022-09-12T08:02:00.270Z,14.83
2022-09-12T08:03:00.391Z,14.84
2022-09-12T08:04:00.543Z,14.89
2022-09-12T08:05:00.712Z,14.95
2022-09-12T08:06:00.838Z,15
2022-09-12T08:07:00.981Z,15.06
2022-09-12T08:08:01.114Z,15.13
2022-09-12T08:09:00.264Z,15.18
2022-09-12T08:10:00.431Z,15.22
2022-09-12T08:11:00.572Z,15.21
2022-09-12T08:12:00.736Z,15.22
2022-09-12T08:13:00.871Z,15.22
2022-09-12T08:14:01.016Z,15.25
2022-09-12T08:15:01.189Z,15.25
2022-09-12T08:16:00.363Z,15.3
2022-09-12T08:17:00.444Z,15.39
2022-09-12T08:18:00.587Z,15.46
2022-09-12T08:19:00.737Z,15.52
2022-09-12T08:20:00.897Z,15.58
2022-09-12T08:21:01.033Z,15.57
2022-09-12T08:22:01.179Z,15.63
2022-09-12T08:23:00.327Z,15.67
2022-09-12T08:24:00.468Z,15.75
2022-09-12T08:25:00.630Z,15.81
2022-09-12T08:26:05.319Z,15.84
2022-09-12T08:27:00.929Z,15.91
2022-09-12T08:28:01.048Z,15.93
2022-09-12T08:29:01.210Z,16.01
2022-09-12T08:30:00.348Z,16.07
2022-09-12T08:31:00.526Z,16.14
2022-09-12T08:32:00.659Z,16.18
2022-09-12T08:33:00.790Z,16.21
2022-09-12T08:34:00.945Z,16.26
2022-09-12T08:35:01.088Z,16.31
2022-09-12T08:36:01.236Z,16.36
2022-09-12T08:37:00.390Z,16.45
2022-09-12T08:38:00.527Z,16.47
2022-09-12T08:39:00.756Z,16.51
2022-09-12T08:40:00.965Z,16.51
2022-09-12T08:41:00.974Z,16.49
2022-09-12T08:42:01.203Z,16.5
2022-09-12T08:43:01.258Z,16.51
2022-09-12T08:44:00.404Z,16.54
2022-09-12T08:45:00.568Z,16.55
2022-09-12T08:46:00.732Z,16.56
2022-09-12T08:47:00.852Z,16.6
2022-09-12T08:48:00.988Z,16.67
2022-09-12T08:49:01.143Z,16.78
2022-09-12T08:50:00.283Z,16.85
2022-09-12T08:51:00.440Z,16.88
2022-09-12T08:52:00.588Z,16.94
2022-09-12T08:53:00.715Z,17.02
2022-09-12T08:54:00.873Z,17.03
2022-09-12T08:55:01.050Z,17.03
2022-09-12T08:56:01.174Z,17.06
2022-09-12T08:57:00.320Z,17.07
2022-09-12T08:58:00.472Z,17.06
2022-09-12T08:59:00.610Z,17.05
2022-09-12T09:00:00.786Z,17.04
2022-09-12T09:01:00.907Z,17.06
2022-09-12T09:02:01.150Z,17.1
2022-09-12T09:03:01.195Z,17.18
2022-09-12T09:04:00.352Z,17.28
2022-09-12T09:05:00.509Z,17.35
2022-09-12T09:06:00.669Z,17.45
2022-09-12T09:07:00.806Z,17.56
2022-09-12T09:08:00.950Z,17.72
2022-09-12T09:09:01.104Z,17.76
2022-09-12T09:10:01.249Z,17.74
2022-09-12T09:11:00.414Z,17.7
2022-09-12T09:12:00.539Z,17.68
2022-09-12T09:13:00.692Z,17.7
2022-09-12T09:14:04.891Z,17.74
2022-09-12T09:15:00.986Z,17.75
2022-09-12T09:16:01.285Z,17.74
2022-09-12T09:17:00.273Z,17.73
2022-09-12T09:18:00.422Z,17.74
2022-09-12T09:19:00.583Z,17.76
2022-09-12T09:20:00.731Z,17.75
2022-09-12T09:21:00.896Z,17.75
2022-09-12T09:22:01.025Z,17.76
2022-09-12T09:23:01.165Z,17.73
2022-09-12T09:24:00.306Z,17.72
2022-09-12T09:25:00.455Z,17.72
2022-09-12T09:26:00.628Z,17.73
2022-09-12T09:27:00.760Z,17.73
2022-09-12T09:28:00.903Z,17.8
2022-09-12T09:29:01.089Z,17.9
2022-09-12T09:30:01.202Z,17.99
2022-09-12T09:31:00.411Z,18.04
2022-09-12T09:32:00.492Z,18.05
2022-09-12T09:33:00.652Z,18.1
2022-09-12T09:34:00.774Z,18.13
2022-09-12T09:35:00.931Z,18.12
2022-09-12T09:36:01.080Z,18.09
2022-09-12T09:37:01.238Z,18.11
2022-09-12T09:38:00.411Z,18.08
2022-09-12T09:39:00.526Z,18.04
2022-09-12T09:40:00.698Z,18.06
2022-09-12T09:41:00.816Z,18.08
2022-09-12T09:42:00.976Z,18.1
2022-09-12T09:43:01.145Z,18.12
2022-09-12T09:44:00.327Z,18.11
2022-09-12T09:45:00.408Z,18.12
2022-09-12T09:46:00.663Z,18.08
2022-09-12T09:47:00.711Z,18.06
2022-09-12T09:48:00.880Z,18.04
2022-09-12T09:49:02.047Z,17.96
2022-09-12T09:50:01.150Z,17.9
2022-09-12T09:51:00.293Z,17.87
2022-09-12T09:52:00.748Z,17.82
2022-09-12T09:53:00.615Z,17.78
2022-09-12T09:54:00.736Z,17.78
2022-09-12T09:55:00.898Z,17.75
2022-09-12T09:56:01.104Z,17.74
2022-09-12T09:57:01.246Z,17.75
2022-09-12T09:58:00.370Z,17.76
2022-09-12T09:59:00.494Z,17.77
2022-09-12T10:00:00.635Z,17.76
2022-09-12T10:01:00.846Z,17.77
2022-09-12T10:02:01.011Z,17.79
2022-09-12T10:03:01.134Z,17.81
2022-09-12T10:04:01.211Z,17.8
2022-09-12T10:05:00.363Z,17.79
2022-09-12T10:06:00.542Z,17.82
2022-09-12T10:07:00.658Z,17.89
2022-09-12T10:08:00.827Z,17.93
2022-09-12T10:09:00.987Z,17.95
2022-09-12T10:10:01.131Z,17.97
2022-09-12T10:11:00.302Z,17.98
2022-09-12T10:12:00.424Z,18
2022-09-12T10:13:00.570Z,18.02
2022-09-12T10:14:00.729Z,18.04
2022-09-12T10:15:00.871Z,18.08
2022-09-12T10:16:01.095Z,18.09
2022-09-12T10:17:01.198Z,18.12
2022-09-12T10:18:00.319Z,18.12
2022-09-12T10:19:00.473Z,18.17
2022-09-12T10:20:19.735Z,18.21
2022-09-12T10:21:00.754Z,18.25
2022-09-12T10:22:00.947Z,18.35
2022-09-12T10:23:01.053Z,18.38
2022-09-12T10:24:01.205Z,18.42
2022-09-12T10:25:00.360Z,18.44
2022-09-12T10:26:00.501Z,18.46
2022-09-12T10:27:00.657Z,18.44
2022-09-12T10:28:00.791Z,18.44
2022-09-12T10:29:00.938Z,18.46
2022-09-12T10:30:01.093Z,18.46
2022-09-12T10:31:01.315Z,18.47
2022-09-12T10:32:00.412Z,18.49
2022-09-12T10:33:00.545Z,18.59
2022-09-12T10:34:00.698Z,18.73
2022-09-12T10:35:00.836Z,18.82
2022-09-12T10:36:01.007Z,18.83
2022-09-12T10:37:01.129Z,18.73
2022-09-12T10:38:00.263Z,18.67
2022-09-12T10:39:00.406Z,18.7
2022-09-12T10:40:00.603Z,18.72
2022-09-12T10:41:00.720Z,18.72
2022-09-12T10:42:00.859Z,18.71
2022-09-12T10:43:01.008Z,18.66
2022-09-12T10:44:01.146Z,18.68
2022-09-12T10:45:00.295Z,18.77
2022-09-12T10:46:00.536Z,18.83
2022-09-12T10:47:00.602Z,18.85
2022-09-12T10:48:05.455Z,18.87
2022-09-12T10:49:00.868Z,18.88
2022-09-12T10:50:01.030Z,18.85
2022-09-12T10:51:01.167Z,18.82
2022-09-12T10:52:00.315Z,18.78
2022-09-12T10:53:00.468Z,18.71
2022-09-12T10:54:00.648Z,18.66
2022-09-12T10:55:00.811Z,18.61
2022-09-12T10:56:00.902Z,18.59
2022-09-12T10:57:01.090Z,18.64
2022-09-12T10:58:01.187Z,18.65
2022-09-12T10:59:00.325Z,18.67
2022-09-12T11:00:00.479Z,18.7
2022-09-12T11:01:00.626Z,18.7
2022-09-12T11:02:00.858Z,18.74
2022-09-12T11:03:00.919Z,18.78
2022-09-12T11:04:01.062Z,18.78
2022-09-12T11:05:01.211Z,18.77
2022-09-12T11:06:00.357Z,18.76
2022-09-12T11:07:00.538Z,18.74
2022-09-12T11:08:00.651Z,18.79
2022-09-12T11:09:00.805Z,18.87
2022-09-12T11:10:00.950Z,18.89
2022-09-12T11:11:01.102Z,18.92
2022-09-12T11:12:01.271Z,18.91
2022-09-12T11:13:00.390Z,18.89
2022-09-12T11:14:00.542Z,18.93
2022-09-12T11:15:00.693Z,18.95
2022-09-12T11:16:00.877Z,18.96
2022-09-12T11:17:01.013Z,18.97
2022-09-12T11:18:01.137Z,18.94
2022-09-12T11:19:00.273Z,18.91
2022-09-12T11:20:00.435Z,18.88
2022-09-12T11:21:00.584Z,18.82
2022-09-12T11:22:00.757Z,18.83
2022-09-12T11:23:00.881Z,18.87
2022-09-12T11:24:01.041Z,18.87
2022-09-12T11:25:01.195Z,18.89
2022-09-12T11:26:00.347Z,18.94
2022-09-12T11:27:00.528Z,19
2022-09-12T11:28:00.661Z,19.06
2022-09-12T11:29:00.802Z,19.08
2022-09-12T11:30:00.945Z,19.06
2022-09-12T11:31:01.201Z,19.02
2022-09-12T11:32:01.270Z,19.04
2022-09-12T11:33:00.417Z,19.07
2022-09-12T11:34:00.540Z,19.08
2022-09-12T11:35:00.698Z,19.1
2022-09-12T11:36:00.832Z,19.1
2022-09-12T11:37:01.020Z,19.09
2022-09-12T11:38:01.144Z,19.13
2022-09-12T11:39:00.274Z,19.12
2022-09-12T11:40:00.490Z,19.13
2022-09-12T11:41:00.571Z,19.16
2022-09-12T11:42:00.729Z,19.21
2022-09-12T11:43:00.896Z,19.26
2022-09-12T11:44:01.009Z,19.3
2022-09-12T11:45:01.155Z,19.28
2022-09-12T11:46:00.323Z,19.27
2022-09-12T11:47:00.447Z,19.27
2022-09-12T11:48:00.611Z,19.32
2022-09-12T11:49:00.748Z,19.35
2022-09-12T11:50:00.896Z,19.32
2022-09-12T11:51:01.043Z,19.32
2022-09-12T11:52:01.197Z,19.33
2022-09-12T11:53:00.380Z,19.32
2022-09-12T11:54:00.483Z,19.36
2022-09-12T11:55:00.621Z,19.4
2022-09-12T11:56:00.775Z,19.39
2022-09-12T11:57:00.925Z,19.4
2022-09-12T11:58:01.086Z,19.45
2022-09-12T11:59:01.217Z,19.43
2022-09-12T12:00:00.361Z,19.4
2022-09-12T12:01:00.517Z,19.38
2022-09-12T12:02:00.728Z,19.4
2022-09-12T12:03:00.809Z,19.4
2022-09-12T12:04:01.016Z,19.4
2022-09-12T12:05:01.102Z,19.42
2022-09-12T12:06:01.255Z,19.46
2022-09-12T12:07:00.423Z,19.52
2022-09-12T12:08:00.600Z,19.55
2022-09-12T12:09:00.733Z,19.62
2022-09-12T12:10:00.881Z,19.66
2022-09-12T12:11:01.037Z,19.66
2022-09-12T12:12:01.183Z,19.66
2022-09-12T12:13:00.314Z,19.68
2022-09-12T12:14:00.455Z,19.69
2022-09-12T12:15:00.602Z,19.71
2022-09-12T12:16:00.795Z,19.79
2022-09-12T12:17:00.933Z,19.91
2022-09-12T12:18:01.042Z,19.91
2022-09-12T12:19:01.198Z,19.91
2022-09-12T12:20:05.473Z,19.92
2022-09-12T12:21:00.489Z,19.92
2022-09-12T12:22:00.634Z,19.96
2022-09-12T12:23:00.806Z,20
2022-09-12T12:24:00.924Z,20.04
2022-09-12T12:25:01.079Z,20.04
2022-09-12T12:26:01.219Z,20.02
2022-09-12T12:27:00.370Z,20.01
2022-09-12T12:28:00.528Z,19.98
2022-09-12T12:29:00.670Z,19.92
2022-09-12T12:30:00.807Z,19.92
2022-09-12T12:31:00.995Z,19.91
2022-09-12T12:32:01.087Z,19.91
2022-09-12T12:33:01.241Z,19.91
2022-09-12T12:34:00.395Z,19.91
2022-09-12T12:35:00.542Z,19.92
2022-09-12T12:36:00.693Z,19.92
2022-09-12T12:37:05.510Z,19.92
2022-09-12T12:38:00.978Z,19.98
2022-09-12T12:39:01.137Z,19.96
2022-09-12T12:40:00.393Z,19.92
2022-09-12T12:41:00.421Z,19.91
2022-09-12T12:42:00.601Z,19.91
2022-09-12T12:43:00.722Z,19.92
2022-09-12T12:44:00.871Z,19.92
2022-09-12T12:45:01.018Z,20.03
2022-09-12T12:46:01.204Z,20.12
2022-09-12T12:47:00.341Z,20.19
2022-09-12T12:48:00.499Z,20.22
2022-09-12T12:49:00.618Z,20.26
2022-09-12T12:50:00.765Z,20.31
2022-09-12T12:51:00.913Z,20.37
2022-09-12T12:52:01.062Z,20.35
2022-09-12T12:53:01.225Z,20.39
2022-09-12T12:54:00.351Z,20.41
2022-09-12T12:55:00.495Z,20.43
2022-09-12T12:56:00.640Z,20.42
2022-09-12T12:57:00.792Z,20.42
2022-09-12T12:58:00.951Z,20.43